sensor_id;sensor_type;location;lat;lon;timestamp;temperature;humidity
18218;DHT22;9234;49.344;11.120;2023-07-31T00:00:05;15.90;99.90
18218;DHT22;9234;49.344;11.120;2023-07-31T00:02:38;15.90;99.90
18218;DHT22;9234;49.344;11.120;2023-07-31T00:05:08;15.90;99.90
18218;DHT22;9234;49.344;11.120;2023-07-31T00:07:37;15.80;99.90
18218;DHT22;9234;49.344;11.120;2023-07-31T00:10:06;15.80;99.90
18218;DHT22;9234;49.344;11.120;2023-07-31T00:12:35;15.80;99.90
18218;DHT22;9234;49.344;11.120;2023-07-31T00:15:04;15.70;99.90
18218;DHT22;9234;49.344;11.120;2023-07-31T00:17:34;15.70;99.90
18218;DHT22;9234;49.344;11.120;2023-07-31T00:20:04;15.70;99.90
18218;DHT22;9234;49.344;11.120;2023-07-31T00:22:34;15.70;99.90
18218;DHT22;9234;49.344;11.120;2023-07-31T00:25:03;15.70;99.90
18218;DHT22;9234;49.344;11.120;2023-07-31T00:27:33;15.70;99.90
18218;DHT22;9234;49.344;11.120;2023-07-31T00:30:02;15.70;99.90
18218;DHT22;9234;49.344;11.120;2023-07-31T00:32:32;15.70;99.90
18218;DHT22;9234;49.344;11.120;2023-07-31T00:35:01;15.70;99.90
18218;DHT22;9234;49.344;11.120;2023-07-31T00:37:32;15.70;99.90
18218;DHT22;9234;49.344;11.120;2023-07-31T00:40:01;15.70;99.90
18218;DHT22;9234;49.344;11.120;2023-07-31T00:42:31;15.70;99.90
18218;DHT22;9234;49.344;11.120;2023-07-31T00:45:01;15.70;99.90
18218;DHT22;9234;49.344;11.120;2023-07-31T00:47:30;15.70;99.90
18218;DHT22;9234;49.344;11.120;2023-07-31T00:49:58;15.70;99.90
18218;DHT22;9234;49.344;11.120;2023-07-31T00:52:27;15.70;99.90
18218;DHT22;9234;49.344;11.120;2023-07-31T00:54:57;15.60;99.90
18218;DHT22;9234;49.344;11.120;2023-07-31T00:57:25;15.60;99.90
18218;DHT22;9234;49.344;11.120;2023-07-31T00:59:54;15.60;99.90
18218;DHT22;9234;49.344;11.120;2023-07-31T01:02:22;15.50;99.90
18218;DHT22;9234;49.344;11.120;2023-07-31T01:04:52;15.50;99.90
18218;DHT22;9234;49.344;11.120;2023-07-31T01:07:31;15.50;99.90
18218;DHT22;9234;49.344;11.120;2023-07-31T01:10:15;15.50;99.90
18218;DHT22;9234;49.344;11.120;2023-07-31T01:12:49;15.40;99.90
18218;DHT22;9234;49.344;11.120;2023-07-31T01:15:19;15.40;99.90
18218;DHT22;9234;49.344;11.120;2023-07-31T01:17:48;15.40;99.90
18218;DHT22;9234;49.344;11.120;2023-07-31T01:20:20;15.40;99.90
18218;DHT22;9234;49.344;11.120;2023-07-31T01:23:14;15.40;99.90
18218;DHT22;9234;49.344;11.120;2023-07-31T01:26:11;15.40;99.90
18218;DHT22;9234;49.344;11.120;2023-07-31T01:28:50;15.40;99.90
18218;DHT22;9234;49.344;11.120;2023-07-31T01:31:25;15.40;99.90
18218;DHT22;9234;49.344;11.120;2023-07-31T01:33:59;15.40;99.90
18218;DHT22;9234;49.344;11.120;2023-07-31T01:36:30;15.40;99.90
18218;DHT22;9234;49.344;11.120;2023-07-31T01:39:00;15.40;99.90
18218;DHT22;9234;49.344;11.120;2023-07-31T01:41:31;15.50;99.90
18218;DHT22;9234;49.344;11.120;2023-07-31T01:43:59;15.50;99.90
18218;DHT22;9234;49.344;11.120;2023-07-31T01:46:28;15.50;99.90
18218;DHT22;9234;49.344;11.120;2023-07-31T01:48:57;15.50;99.90
18218;DHT22;9234;49.344;11.120;2023-07-31T01:51:25;15.50;99.90
18218;DHT22;9234;49.344;11.120;2023-07-31T01:53:53;15.60;99.90
18218;DHT22;9234;49.344;11.120;2023-07-31T01:56:22;15.60;99.90
18218;DHT22;9234;49.344;11.120;2023-07-31T01:58:51;15.60;99.90
18218;DHT22;9234;49.344;11.120;2023-07-31T02:01:20;15.60;99.90
18218;DHT22;9234;49.344;11.120;2023-07-31T02:03:51;15.60;99.90
18218;DHT22;9234;49.344;11.120;2023-07-31T02:06:21;15.60;99.90
18218;DHT22;9234;49.344;11.120;2023-07-31T02:08:49;15.60;99.90
18218;DHT22;9234;49.344;11.120;2023-07-31T02:11:18;15.70;99.90
18218;DHT22;9234;49.344;11.120;2023-07-31T02:13:50;15.70;99.90
18218;DHT22;9234;49.344;11.120;2023-07-31T02:16:18;15.70;99.90
18218;DHT22;9234;49.344;11.120;2023-07-31T02:18:47;15.70;99.90
18218;DHT22;9234;49.344;11.120;2023-07-31T02:21:16;15.70;99.90
18218;DHT22;9234;49.344;11.120;2023-07-31T02:23:47;15.70;99.90
18218;DHT22;9234;49.344;11.120;2023-07-31T02:26:15;15.70;99.90
18218;DHT22;9234;49.344;11.120;2023-07-31T02:28:44;15.70;99.90
18218;DHT22;9234;49.344;11.120;2023-07-31T02:31:13;15.70;99.90
18218;DHT22;9234;49.344;11.120;2023-07-31T02:33:42;15.70;99.90
18218;DHT22;9234;49.344;11.120;2023-07-31T02:36:10;15.70;99.90
18218;DHT22;9234;49.344;11.120;2023-07-31T02:38:39;15.70;99.90
18218;DHT22;9234;49.344;11.120;2023-07-31T02:41:07;15.70;99.90
18218;DHT22;9234;49.344;11.120;2023-07-31T02:43:36;15.70;99.90
18218;DHT22;9234;49.344;11.120;2023-07-31T02:46:04;15.70;99.90
18218;DHT22;9234;49.344;11.120;2023-07-31T02:48:34;15.80;99.90
18218;DHT22;9234;49.344;11.120;2023-07-31T02:51:02;15.80;99.90
18218;DHT22;9234;49.344;11.120;2023-07-31T02:53:31;15.70;99.90
18218;DHT22;9234;49.344;11.120;2023-07-31T02:55:59;15.70;99.90
18218;DHT22;9234;49.344;11.120;2023-07-31T02:58:28;15.80;99.90
18218;DHT22;9234;49.344;11.120;2023-07-31T03:00:58;15.70;99.90
18218;DHT22;9234;49.344;11.120;2023-07-31T03:03:26;15.70;99.90
18218;DHT22;9234;49.344;11.120;2023-07-31T03:05:56;15.70;99.90
18218;DHT22;9234;49.344;11.120;2023-07-31T03:08:25;15.70;99.90
18218;DHT22;9234;49.344;11.120;2023-07-31T03:10:54;15.70;99.90
18218;DHT22;9234;49.344;11.120;2023-07-31T03:13:24;15.80;99.90
18218;DHT22;9234;49.344;11.120;2023-07-31T03:15:52;15.70;99.90
18218;DHT22;9234;49.344;11.120;2023-07-31T03:18:21;15.70;99.90
18218;DHT22;9234;49.344;11.120;2023-07-31T03:20:49;15.70;99.90
18218;DHT22;9234;49.344;11.120;2023-07-31T03:23:19;15.70;99.90
18218;DHT22;9234;49.344;11.120;2023-07-31T03:25:57;15.70;99.90
18218;DHT22;9234;49.344;11.120;2023-07-31T03:28:29;15.70;99.90
18218;DHT22;9234;49.344;11.120;2023-07-31T03:30:58;15.70;99.90
18218;DHT22;9234;49.344;11.120;2023-07-31T03:33:26;15.70;99.90
18218;DHT22;9234;49.344;11.120;2023-07-31T03:35:56;15.60;99.90
18218;DHT22;9234;49.344;11.120;2023-07-31T03:38:26;15.60;99.90
18218;DHT22;9234;49.344;11.120;2023-07-31T03:40:54;15.60;99.90
18218;DHT22;9234;49.344;11.120;2023-07-31T03:43:22;15.60;99.90
18218;DHT22;9234;49.344;11.120;2023-07-31T03:45:52;15.50;99.90
18218;DHT22;9234;49.344;11.120;2023-07-31T03:48:20;15.50;99.90
18218;DHT22;9234;49.344;11.120;2023-07-31T03:50:49;15.50;99.90
18218;DHT22;9234;49.344;11.120;2023-07-31T03:53:17;15.50;99.90
18218;DHT22;9234;49.344;11.120;2023-07-31T03:55:47;15.50;99.90
18218;DHT22;9234;49.344;11.120;2023-07-31T03:58:15;15.50;99.90
18218;DHT22;9234;49.344;11.120;2023-07-31T04:00:45;15.50;99.90
18218;DHT22;9234;49.344;11.120;2023-07-31T04:03:13;15.50;99.90
18218;DHT22;9234;49.344;11.120;2023-07-31T04:05:42;15.50;99.90
18218;DHT22;9234;49.344;11.120;2023-07-31T04:08:10;15.50;99.90
18218;DHT22;9234;49.344;11.120;2023-07-31T04:10:39;15.50;99.90
18218;DHT22;9234;49.344;11.120;2023-07-31T04:13:09;15.50;99.90
18218;DHT22;9234;49.344;11.120;2023-07-31T04:15:37;15.50;99.90
18218;DHT22;9234;49.344;11.120;2023-07-31T04:18:05;15.50;99.90
18218;DHT22;9234;49.344;11.120;2023-07-31T04:20:36;15.50;99.90
18218;DHT22;9234;49.344;11.120;2023-07-31T04:23:06;15.50;99.90
18218;DHT22;9234;49.344;11.120;2023-07-31T04:25:34;15.60;99.90
18218;DHT22;9234;49.344;11.120;2023-07-31T04:28:03;15.60;99.90
18218;DHT22;9234;49.344;11.120;2023-07-31T04:30:33;15.60;99.90
18218;DHT22;9234;49.344;11.120;2023-07-31T04:33:01;15.60;99.90
18218;DHT22;9234;49.344;11.120;2023-07-31T04:35:29;15.60;99.90
18218;DHT22;9234;49.344;11.120;2023-07-31T04:37:58;15.60;99.90
18218;DHT22;9234;49.344;11.120;2023-07-31T04:40:26;15.60;99.90
18218;DHT22;9234;49.344;11.120;2023-07-31T04:42:55;15.60;99.90
18218;DHT22;9234;49.344;11.120;2023-07-31T04:45:23;15.60;99.90
18218;DHT22;9234;49.344;11.120;2023-07-31T04:47:53;15.60;99.90
18218;DHT22;9234;49.344;11.120;2023-07-31T04:50:21;15.60;99.90
18218;DHT22;9234;49.344;11.120;2023-07-31T04:52:49;15.70;99.90
18218;DHT22;9234;49.344;11.120;2023-07-31T04:55:18;15.70;99.90
18218;DHT22;9234;49.344;11.120;2023-07-31T04:57:46;15.70;99.90
18218;DHT22;9234;49.344;11.120;2023-07-31T05:00:14;15.70;99.90
18218;DHT22;9234;49.344;11.120;2023-07-31T05:02:43;15.80;99.90
18218;DHT22;9234;49.344;11.120;2023-07-31T05:05:14;15.80;99.90
18218;DHT22;9234;49.344;11.120;2023-07-31T05:07:42;15.90;99.90
18218;DHT22;9234;49.344;11.120;2023-07-31T05:10:11;15.90;99.90
18218;DHT22;9234;49.344;11.120;2023-07-31T05:12:39;16.00;99.90
18218;DHT22;9234;49.344;11.120;2023-07-31T05:15:09;16.10;99.90
18218;DHT22;9234;49.344;11.120;2023-07-31T05:17:37;16.10;99.90
18218;DHT22;9234;49.344;11.120;2023-07-31T05:20:07;16.20;99.90
18218;DHT22;9234;49.344;11.120;2023-07-31T05:22:38;16.30;99.90
18218;DHT22;9234;49.344;11.120;2023-07-31T05:25:07;16.40;99.90
18218;DHT22;9234;49.344;11.120;2023-07-31T05:27:36;16.40;99.90
18218;DHT22;9234;49.344;11.120;2023-07-31T05:30:05;16.50;99.90
18218;DHT22;9234;49.344;11.120;2023-07-31T05:32:35;16.60;99.90
18218;DHT22;9234;49.344;11.120;2023-07-31T05:35:04;16.70;99.90
18218;DHT22;9234;49.344;11.120;2023-07-31T05:37:33;16.80;99.90
18218;DHT22;9234;49.344;11.120;2023-07-31T05:40:07;16.80;99.90
18218;DHT22;9234;49.344;11.120;2023-07-31T05:42:36;16.90;99.90
18218;DHT22;9234;49.344;11.120;2023-07-31T05:45:06;17.00;99.90
18218;DHT22;9234;49.344;11.120;2023-07-31T05:47:35;17.10;99.90
18218;DHT22;9234;49.344;11.120;2023-07-31T05:50:04;17.10;99.90
18218;DHT22;9234;49.344;11.120;2023-07-31T05:52:33;17.20;99.90
18218;DHT22;9234;49.344;11.120;2023-07-31T05:55:02;17.30;99.90
18218;DHT22;9234;49.344;11.120;2023-07-31T05:57:32;17.30;99.90
18218;DHT22;9234;49.344;11.120;2023-07-31T06:00:00;17.40;99.90
18218;DHT22;9234;49.344;11.120;2023-07-31T06:02:32;17.50;99.90
18218;DHT22;9234;49.344;11.120;2023-07-31T06:05:04;17.60;99.90
18218;DHT22;9234;49.344;11.120;2023-07-31T06:07:33;17.70;99.90
18218;DHT22;9234;49.344;11.120;2023-07-31T06:10:02;17.80;99.90
18218;DHT22;9234;49.344;11.120;2023-07-31T06:12:34;17.90;99.90
18218;DHT22;9234;49.344;11.120;2023-07-31T06:15:04;18.00;99.90
18218;DHT22;9234;49.344;11.120;2023-07-31T06:17:32;18.10;99.90
18218;DHT22;9234;49.344;11.120;2023-07-31T06:20:01;18.20;99.90
18218;DHT22;9234;49.344;11.120;2023-07-31T06:22:32;18.30;99.90
18218;DHT22;9234;49.344;11.120;2023-07-31T06:25:00;18.40;99.90
18218;DHT22;9234;49.344;11.120;2023-07-31T06:27:28;18.40;99.90
18218;DHT22;9234;49.344;11.120;2023-07-31T06:29:58;18.50;99.90
18218;DHT22;9234;49.344;11.120;2023-07-31T06:32:26;18.60;99.90
18218;DHT22;9234;49.344;11.120;2023-07-31T06:34:55;18.70;99.90
18218;DHT22;9234;49.344;11.120;2023-07-31T06:37:23;18.80;99.90
18218;DHT22;9234;49.344;11.120;2023-07-31T06:39:52;19.00;99.90
18218;DHT22;9234;49.344;11.120;2023-07-31T06:42:20;19.10;99.90
18218;DHT22;9234;49.344;11.120;2023-07-31T06:44:49;19.20;99.90
18218;DHT22;9234;49.344;11.120;2023-07-31T06:47:19;19.30;99.90
18218;DHT22;9234;49.344;11.120;2023-07-31T06:49:48;19.40;99.90
18218;DHT22;9234;49.344;11.120;2023-07-31T06:52:16;19.40;99.70
18218;DHT22;9234;49.344;11.120;2023-07-31T06:54:48;19.50;99.40
18218;DHT22;9234;49.344;11.120;2023-07-31T06:57:28;19.60;99.00
18218;DHT22;9234;49.344;11.120;2023-07-31T06:59:57;19.70;98.40
18218;DHT22;9234;49.344;11.120;2023-07-31T07:02:26;19.80;98.10
18218;DHT22;9234;49.344;11.120;2023-07-31T07:04:55;19.90;97.90
18218;DHT22;9234;49.344;11.120;2023-07-31T07:07:23;20.00;97.50
18218;DHT22;9234;49.344;11.120;2023-07-31T07:09:52;20.10;96.00
18218;DHT22;9234;49.344;11.120;2023-07-31T07:12:20;20.20;96.10
18218;DHT22;9234;49.344;11.120;2023-07-31T07:14:49;20.30;95.60
18218;DHT22;9234;49.344;11.120;2023-07-31T07:17:19;20.40;95.70
18218;DHT22;9234;49.344;11.120;2023-07-31T07:19:49;20.60;95.10
18218;DHT22;9234;49.344;11.120;2023-07-31T07:22:18;20.70;95.50
18218;DHT22;9234;49.344;11.120;2023-07-31T07:24:46;20.90;95.30
18218;DHT22;9234;49.344;11.120;2023-07-31T07:27:14;21.00;94.50
18218;DHT22;9234;49.344;11.120;2023-07-31T07:29:43;21.10;94.20
18218;DHT22;9234;49.344;11.120;2023-07-31T07:32:12;21.20;93.60
18218;DHT22;9234;49.344;11.120;2023-07-31T07:34:40;21.30;93.80
18218;DHT22;9234;49.344;11.120;2023-07-31T07:37:10;21.30;93.90
18218;DHT22;9234;49.344;11.120;2023-07-31T07:39:39;21.40;93.60
18218;DHT22;9234;49.344;11.120;2023-07-31T07:42:07;21.40;93.00
18218;DHT22;9234;49.344;11.120;2023-07-31T07:44:36;21.40;92.30
18218;DHT22;9234;49.344;11.120;2023-07-31T07:47:04;21.40;92.10
18218;DHT22;9234;49.344;11.120;2023-07-31T07:49:35;21.30;92.10
18218;DHT22;9234;49.344;11.120;2023-07-31T07:52:04;21.20;92.00
18218;DHT22;9234;49.344;11.120;2023-07-31T07:54:35;21.20;92.10
18218;DHT22;9234;49.344;11.120;2023-07-31T07:57:04;21.30;92.40
18218;DHT22;9234;49.344;11.120;2023-07-31T07:59:32;21.30;91.90
18218;DHT22;9234;49.344;11.120;2023-07-31T08:02:01;21.40;92.20
18218;DHT22;9234;49.344;11.120;2023-07-31T08:04:29;21.50;92.40
18218;DHT22;9234;49.344;11.120;2023-07-31T08:06:58;21.50;92.00
18218;DHT22;9234;49.344;11.120;2023-07-31T08:09:26;21.60;91.50
18218;DHT22;9234;49.344;11.120;2023-07-31T08:11:56;21.60;91.60
18218;DHT22;9234;49.344;11.120;2023-07-31T08:14:29;21.60;91.20
18218;DHT22;9234;49.344;11.120;2023-07-31T08:16:59;21.70;91.40
18218;DHT22;9234;49.344;11.120;2023-07-31T08:19:28;21.70;91.10
18218;DHT22;9234;49.344;11.120;2023-07-31T08:21:57;21.70;90.80
18218;DHT22;9234;49.344;11.120;2023-07-31T08:24:25;21.80;91.20
18218;DHT22;9234;49.344;11.120;2023-07-31T08:26:53;21.90;91.70
18218;DHT22;9234;49.344;11.120;2023-07-31T08:29:24;22.00;91.30
18218;DHT22;9234;49.344;11.120;2023-07-31T08:31:52;22.20;90.70
18218;DHT22;9234;49.344;11.120;2023-07-31T08:34:21;22.20;90.10
18218;DHT22;9234;49.344;11.120;2023-07-31T08:36:49;22.30;90.70
18218;DHT22;9234;49.344;11.120;2023-07-31T08:39:17;22.30;90.40
18218;DHT22;9234;49.344;11.120;2023-07-31T08:41:47;22.40;90.40
18218;DHT22;9234;49.344;11.120;2023-07-31T08:44:18;22.40;90.50
18218;DHT22;9234;49.344;11.120;2023-07-31T08:46:47;22.50;90.30
18218;DHT22;9234;49.344;11.120;2023-07-31T08:49:17;22.60;90.00
18218;DHT22;9234;49.344;11.120;2023-07-31T08:51:50;22.70;89.70
18218;DHT22;9234;49.344;11.120;2023-07-31T08:54:20;22.80;89.90
18218;DHT22;9234;49.344;11.120;2023-07-31T08:56:49;23.00;88.40
18218;DHT22;9234;49.344;11.120;2023-07-31T08:59:21;23.00;88.00
18218;DHT22;9234;49.344;11.120;2023-07-31T09:01:53;23.00;88.40
18218;DHT22;9234;49.344;11.120;2023-07-31T09:04:23;23.10;88.10
18218;DHT22;9234;49.344;11.120;2023-07-31T09:06:58;23.00;86.30
18218;DHT22;9234;49.344;11.120;2023-07-31T09:09:30;23.00;85.00
18218;DHT22;9234;49.344;11.120;2023-07-31T09:11:59;22.90;85.80
18218;DHT22;9234;49.344;11.120;2023-07-31T09:14:29;22.70;86.50
18218;DHT22;9234;49.344;11.120;2023-07-31T09:16:58;22.70;87.10
18218;DHT22;9234;49.344;11.120;2023-07-31T09:19:28;22.80;86.70
18218;DHT22;9234;49.344;11.120;2023-07-31T09:21:57;22.90;87.00
18218;DHT22;9234;49.344;11.120;2023-07-31T09:24:26;23.10;87.50
18218;DHT22;9234;49.344;11.120;2023-07-31T09:26:58;23.30;86.70
18218;DHT22;9234;49.344;11.120;2023-07-31T09:29:29;23.50;84.00
18218;DHT22;9234;49.344;11.120;2023-07-31T09:31:57;23.70;84.80
18218;DHT22;9234;49.344;11.120;2023-07-31T09:34:30;23.90;84.50
18218;DHT22;9234;49.344;11.120;2023-07-31T09:37:05;24.10;82.20
18218;DHT22;9234;49.344;11.120;2023-07-31T09:39:45;24.30;83.90
18218;DHT22;9234;49.344;11.120;2023-07-31T09:42:24;24.50;82.70
18218;DHT22;9234;49.344;11.120;2023-07-31T09:45:07;24.70;81.60
18218;DHT22;9234;49.344;11.120;2023-07-31T09:47:36;24.80;80.00
18218;DHT22;9234;49.344;11.120;2023-07-31T09:50:07;25.00;80.00
18218;DHT22;9234;49.344;11.120;2023-07-31T09:52:38;25.10;77.70
18218;DHT22;9234;49.344;11.120;2023-07-31T09:55:07;25.20;76.80
18218;DHT22;9234;49.344;11.120;2023-07-31T09:57:39;25.20;76.90
18218;DHT22;9234;49.344;11.120;2023-07-31T10:00:12;25.00;76.20
18218;DHT22;9234;49.344;11.120;2023-07-31T10:02:44;24.70;75.80
18218;DHT22;9234;49.344;11.120;2023-07-31T10:05:15;24.40;77.10
18218;DHT22;9234;49.344;11.120;2023-07-31T10:07:51;24.20;78.20
18218;DHT22;9234;49.344;11.120;2023-07-31T10:10:22;24.10;79.20
18218;DHT22;9234;49.344;11.120;2023-07-31T10:12:52;24.00;79.80
18218;DHT22;9234;49.344;11.120;2023-07-31T10:15:23;24.00;80.60
18218;DHT22;9234;49.344;11.120;2023-07-31T10:17:52;24.00;80.50
18218;DHT22;9234;49.344;11.120;2023-07-31T10:20:23;24.00;80.00
18218;DHT22;9234;49.344;11.120;2023-07-31T10:22:55;24.20;80.00
18218;DHT22;9234;49.344;11.120;2023-07-31T10:25:26;24.30;78.80
18218;DHT22;9234;49.344;11.120;2023-07-31T10:27:55;24.40;78.80
18218;DHT22;9234;49.344;11.120;2023-07-31T10:30:28;24.40;79.20
18218;DHT22;9234;49.344;11.120;2023-07-31T10:32:59;24.60;79.70
18218;DHT22;9234;49.344;11.120;2023-07-31T10:35:29;24.70;78.40
18218;DHT22;9234;49.344;11.120;2023-07-31T10:38:09;24.80;79.10
18218;DHT22;9234;49.344;11.120;2023-07-31T10:40:38;24.90;78.80
18218;DHT22;9234;49.344;11.120;2023-07-31T10:43:08;24.90;78.20
18218;DHT22;9234;49.344;11.120;2023-07-31T10:45:42;24.90;78.10
18218;DHT22;9234;49.344;11.120;2023-07-31T10:48:13;24.90;78.60
18218;DHT22;9234;49.344;11.120;2023-07-31T10:50:47;24.80;78.10
18218;DHT22;9234;49.344;11.120;2023-07-31T10:53:24;24.80;77.60
18218;DHT22;9234;49.344;11.120;2023-07-31T10:55:58;24.60;76.70
18218;DHT22;9234;49.344;11.120;2023-07-31T10:58:27;24.60;78.00
18218;DHT22;9234;49.344;11.120;2023-07-31T11:01:01;24.70;78.60
18218;DHT22;9234;49.344;11.120;2023-07-31T11:03:44;25.00;78.60
18218;DHT22;9234;49.344;11.120;2023-07-31T11:06:14;25.50;77.80
18218;DHT22;9234;49.344;11.120;2023-07-31T11:08:45;25.60;75.50
18218;DHT22;9234;49.344;11.120;2023-07-31T11:11:16;25.60;75.60
18218;DHT22;9234;49.344;11.120;2023-07-31T11:13:48;25.50;74.00
18218;DHT22;9234;49.344;11.120;2023-07-31T11:16:21;25.20;74.30
18218;DHT22;9234;49.344;11.120;2023-07-31T11:18:52;25.00;75.00
18218;DHT22;9234;49.344;11.120;2023-07-31T11:21:24;24.90;75.60
18218;DHT22;9234;49.344;11.120;2023-07-31T11:23:55;24.80;75.90
18218;DHT22;9234;49.344;11.120;2023-07-31T11:26:25;24.60;76.30
18218;DHT22;9234;49.344;11.120;2023-07-31T11:28:55;24.60;76.70
18218;DHT22;9234;49.344;11.120;2023-07-31T11:31:24;24.50;77.60
18218;DHT22;9234;49.344;11.120;2023-07-31T11:34:04;24.60;77.80
18218;DHT22;9234;49.344;11.120;2023-07-31T11:36:33;24.60;77.20
18218;DHT22;9234;49.344;11.120;2023-07-31T11:39:05;24.60;77.40
18218;DHT22;9234;49.344;11.120;2023-07-31T11:41:33;24.60;77.70
18218;DHT22;9234;49.344;11.120;2023-07-31T11:44:02;24.50;77.70
18218;DHT22;9234;49.344;11.120;2023-07-31T11:46:44;24.50;77.60
18218;DHT22;9234;49.344;11.120;2023-07-31T11:49:13;24.50;77.30
18218;DHT22;9234;49.344;11.120;2023-07-31T11:51:43;24.40;77.90
18218;DHT22;9234;49.344;11.120;2023-07-31T11:54:12;24.40;77.90
18218;DHT22;9234;49.344;11.120;2023-07-31T11:56:43;24.40;78.00
18218;DHT22;9234;49.344;11.120;2023-07-31T11:59:12;24.30;77.70
18218;DHT22;9234;49.344;11.120;2023-07-31T12:01:41;24.20;78.50
18218;DHT22;9234;49.344;11.120;2023-07-31T12:04:11;24.20;79.20
18218;DHT22;9234;49.344;11.120;2023-07-31T12:06:40;24.20;80.60
18218;DHT22;9234;49.344;11.120;2023-07-31T12:09:08;24.10;79.30
18218;DHT22;9234;49.344;11.120;2023-07-31T12:11:43;24.00;79.00
18218;DHT22;9234;49.344;11.120;2023-07-31T12:14:20;24.00;79.10
18218;DHT22;9234;49.344;11.120;2023-07-31T12:16:53;23.90;78.90
18218;DHT22;9234;49.344;11.120;2023-07-31T12:19:25;23.90;80.10
18218;DHT22;9234;49.344;11.120;2023-07-31T12:21:57;23.80;79.20
18218;DHT22;9234;49.344;11.120;2023-07-31T12:24:26;23.80;78.50
18218;DHT22;9234;49.344;11.120;2023-07-31T12:26:54;23.80;78.60
18218;DHT22;9234;49.344;11.120;2023-07-31T12:29:23;23.80;77.80
18218;DHT22;9234;49.344;11.120;2023-07-31T12:32:01;23.90;78.00
18218;DHT22;9234;49.344;11.120;2023-07-31T12:34:31;24.00;78.50
18218;DHT22;9234;49.344;11.120;2023-07-31T12:37:10;24.30;77.70
18218;DHT22;9234;49.344;11.120;2023-07-31T12:39:41;24.60;78.40
18218;DHT22;9234;49.344;11.120;2023-07-31T12:42:10;24.90;76.70
18218;DHT22;9234;49.344;11.120;2023-07-31T12:44:38;25.10;75.60
18218;DHT22;9234;49.344;11.120;2023-07-31T12:47:07;25.50;76.00
18218;DHT22;9234;49.344;11.120;2023-07-31T12:49:37;25.90;75.30
18218;DHT22;9234;49.344;11.120;2023-07-31T12:52:07;26.10;74.10
18218;DHT22;9234;49.344;11.120;2023-07-31T12:54:35;26.20;73.20
18218;DHT22;9234;49.344;11.120;2023-07-31T12:57:04;26.30;72.90
18218;DHT22;9234;49.344;11.120;2023-07-31T12:59:33;26.30;70.90
18218;DHT22;9234;49.344;11.120;2023-07-31T13:02:01;26.30;71.30
18218;DHT22;9234;49.344;11.120;2023-07-31T13:04:30;26.40;70.70
18218;DHT22;9234;49.344;11.120;2023-07-31T13:06:59;26.40;71.70
18218;DHT22;9234;49.344;11.120;2023-07-31T13:09:28;26.30;70.30
18218;DHT22;9234;49.344;11.120;2023-07-31T13:11:56;26.10;70.00
18218;DHT22;9234;49.344;11.120;2023-07-31T13:14:24;26.00;70.80
18218;DHT22;9234;49.344;11.120;2023-07-31T13:16:53;25.90;70.90
18218;DHT22;9234;49.344;11.120;2023-07-31T13:19:21;25.90;70.60
18218;DHT22;9234;49.344;11.120;2023-07-31T13:21:50;25.80;70.20
18218;DHT22;9234;49.344;11.120;2023-07-31T13:24:20;25.80;70.80
18218;DHT22;9234;49.344;11.120;2023-07-31T13:26:48;25.70;70.20
18218;DHT22;9234;49.344;11.120;2023-07-31T13:29:17;25.60;70.40
18218;DHT22;9234;49.344;11.120;2023-07-31T13:31:45;25.60;71.40
18218;DHT22;9234;49.344;11.120;2023-07-31T13:34:14;25.80;71.00
18218;DHT22;9234;49.344;11.120;2023-07-31T13:36:42;25.90;70.50
18218;DHT22;9234;49.344;11.120;2023-07-31T13:39:10;26.00;70.60
18218;DHT22;9234;49.344;11.120;2023-07-31T13:41:40;26.20;71.20
18218;DHT22;9234;49.344;11.120;2023-07-31T13:44:09;26.70;72.10
18218;DHT22;9234;49.344;11.120;2023-07-31T13:46:37;27.00;67.60
18218;DHT22;9234;49.344;11.120;2023-07-31T13:49:06;27.30;68.40
18218;DHT22;9234;49.344;11.120;2023-07-31T13:51:34;27.40;65.90
18218;DHT22;9234;49.344;11.120;2023-07-31T13:54:03;27.20;65.10
18218;DHT22;9234;49.344;11.120;2023-07-31T13:56:31;27.00;66.40
18218;DHT22;9234;49.344;11.120;2023-07-31T13:59:01;26.80;68.00
18218;DHT22;9234;49.344;11.120;2023-07-31T14:01:29;26.70;67.30
18218;DHT22;9234;49.344;11.120;2023-07-31T14:03:58;26.60;67.90
18218;DHT22;9234;49.344;11.120;2023-07-31T14:06:29;26.70;67.90
18218;DHT22;9234;49.344;11.120;2023-07-31T14:09:00;27.10;69.40
18218;DHT22;9234;49.344;11.120;2023-07-31T14:11:31;27.80;67.70
18218;DHT22;9234;49.344;11.120;2023-07-31T14:14:01;28.20;66.50
18218;DHT22;9234;49.344;11.120;2023-07-31T14:16:30;28.40;65.40
18218;DHT22;9234;49.344;11.120;2023-07-31T14:18:58;28.40;64.40
18218;DHT22;9234;49.344;11.120;2023-07-31T14:21:27;28.30;64.10
18218;DHT22;9234;49.344;11.120;2023-07-31T14:23:56;28.20;65.00
18218;DHT22;9234;49.344;11.120;2023-07-31T14:26:24;28.10;64.30
18218;DHT22;9234;49.344;11.120;2023-07-31T14:28:54;28.00;64.30
18218;DHT22;9234;49.344;11.120;2023-07-31T14:31:23;27.70;63.50
18218;DHT22;9234;49.344;11.120;2023-07-31T14:33:52;27.50;64.40
18218;DHT22;9234;49.344;11.120;2023-07-31T14:36:24;27.20;64.50
18218;DHT22;9234;49.344;11.120;2023-07-31T14:38:52;26.90;65.30
18218;DHT22;9234;49.344;11.120;2023-07-31T14:41:20;26.70;65.50
18218;DHT22;9234;49.344;11.120;2023-07-31T14:43:49;26.40;65.00
18218;DHT22;9234;49.344;11.120;2023-07-31T14:46:17;26.20;65.80
18218;DHT22;9234;49.344;11.120;2023-07-31T14:48:47;26.00;66.20
18218;DHT22;9234;49.344;11.120;2023-07-31T14:51:15;25.90;67.60
18218;DHT22;9234;49.344;11.120;2023-07-31T14:53:44;25.80;68.40
18218;DHT22;9234;49.344;11.120;2023-07-31T14:56:14;25.80;68.80
18218;DHT22;9234;49.344;11.120;2023-07-31T14:58:45;25.70;68.70
18218;DHT22;9234;49.344;11.120;2023-07-31T15:01:13;25.60;68.50
18218;DHT22;9234;49.344;11.120;2023-07-31T15:03:44;25.50;69.00
18218;DHT22;9234;49.344;11.120;2023-07-31T15:06:14;25.40;69.40
18218;DHT22;9234;49.344;11.120;2023-07-31T15:08:43;25.20;69.50
18218;DHT22;9234;49.344;11.120;2023-07-31T15:11:13;25.20;69.90
18218;DHT22;9234;49.344;11.120;2023-07-31T15:13:43;25.00;70.20
18218;DHT22;9234;49.344;11.120;2023-07-31T15:16:11;24.90;71.00
18218;DHT22;9234;49.344;11.120;2023-07-31T15:18:40;24.80;71.70
18218;DHT22;9234;49.344;11.120;2023-07-31T15:21:11;24.60;72.10
18218;DHT22;9234;49.344;11.120;2023-07-31T15:23:43;24.50;72.60
18218;DHT22;9234;49.344;11.120;2023-07-31T15:26:11;24.40;72.70
18218;DHT22;9234;49.344;11.120;2023-07-31T15:28:41;24.30;72.90
18218;DHT22;9234;49.344;11.120;2023-07-31T15:31:09;24.30;73.50
18218;DHT22;9234;49.344;11.120;2023-07-31T15:33:38;24.30;73.70
18218;DHT22;9234;49.344;11.120;2023-07-31T15:36:06;24.20;73.60
18218;DHT22;9234;49.344;11.120;2023-07-31T15:38:34;24.10;74.40
18218;DHT22;9234;49.344;11.120;2023-07-31T15:41:05;24.10;75.00
18218;DHT22;9234;49.344;11.120;2023-07-31T15:43:33;24.10;75.30
18218;DHT22;9234;49.344;11.120;2023-07-31T15:46:02;24.10;75.10